Time;durP1;ratioP1;P1;durP2;ratioP2;P2;SDS_P1;SDS_P2;PMS_P1;PMS_P2;Temp;Humidity;BMP_temperature;BMP_pressure;BME280_temperature;BME280_humidity;BME280_pressure;Samples;Min_cycle;Max_cycle;Signal;HPM_P1;HPM_P2
2023/07/29 08:30:12;;;;;;;7.28;1.50;;;;;;;33.63;33.46;100087.66;2153825;27;20436;-77
2023/07/29 08:31:19;;;;;;;2.33;1.50;;;;;;;33.72;33.15;100087.75;2148935;27;20023;-72
2023/07/29 08:32:24;;;;;;;1.88;1.33;;;;;;;33.96;32.61;100087.38;2149652;27;20095;-73
2023/07/29 08:33:30;;;;;;;3.58;1.50;;;;;;;34.22;31.77;100088.88;2134572;27;20031;-74
2023/07/29 08:34:34;;;;;;;2.80;1.40;;;;;;;34.48;31.45;100083.94;2115539;27;20888;-74
2023/07/29 08:35:36;;;;;;;1.90;1.50;;;;;;;34.70;31.17;100081.16;2114092;27;20126;-73
2023/07/29 08:36:37;;;;;;;2.83;1.50;;;;;;;34.92;30.48;100081.13;2122481;27;20036;-73
2023/07/29 08:37:40;;;;;;;2.65;1.65;;;;;;;35.09;29.84;100087.31;2114405;27;20105;-73
2023/07/29 08:38:43;;;;;;;2.42;1.58;;;;;;;35.25;30.36;100080.69;2097349;28;20079;-73
2023/07/29 08:39:46;;;;;;;2.08;1.42;;;;;;;35.39;29.80;100084.91;2105776;28;20025;-73
2023/07/29 08:41:16;;;;;;;2.80;1.50;;;;;;;35.51;29.10;100081.22;2097468;28;20979;-73
2023/07/29 08:42:19;;;;;;;3.00;1.80;;;;;;;35.59;28.75;100076.91;2105121;28;20040;-74
2023/07/29 08:43:28;;;;;;;1.95;1.33;;;;;;;35.68;28.45;100082.53;2105912;28;20775;-73
2023/07/29 08:44:35;;;;;;;2.67;1.50;;;;;;;35.77;28.69;100083.78;2106588;28;20126;-73
2023/07/29 08:45:40;;;;;;;2.03;1.50;;;;;;;35.84;28.50;100084.25;2096900;28;20033;-73
2023/07/29 08:46:46;;;;;;;1.90;1.50;;;;;;;35.89;28.85;100075.25;2098468;27;20140;-74
2023/07/29 08:48:00;;;;;;;2.67;1.40;;;;;;;35.98;28.16;100082.88;2122279;27;20137;-73
2023/07/29 08:49:02;;;;;;;3.45;1.55;;;;;;;36.04;28.73;100074.69;2110560;27;20043;-73
2023/07/29 08:50:09;;;;;;;2.17;1.40;;;;;;;36.11;28.54;100077.94;2097436;28;20128;-73
2023/07/29 08:51:20;;;;;;;3.90;1.30;;;;;;;36.17;28.54;100073.28;2105284;28;20090;-73
2023/07/29 08:52:24;;;;;;;1.80;1.30;;;;;;;36.23;27.17;100069.88;2107666;28;20207;-73
2023/07/29 08:53:28;;;;;;;2.10;1.40;;;;;;;36.26;26.73;100066.13;2113786;27;20029;-74
2023/07/29 08:54:30;;;;;;;2.30;1.50;;;;;;;36.30;26.88;100077.94;2115074;27;20028;-73
2023/07/29 08:55:33;;;;;;;1.70;1.38;;;;;;;36.33;27.04;100077.00;2119426;27;20036;-73
2023/07/29 08:56:35;;;;;;;2.17;1.40;;;;;;;36.33;26.42;100071.41;2093835;28;20148;-73
2023/07/29 08:57:41;;;;;;;2.05;1.20;;;;;;;36.32;26.02;100076.22;2110905;27;20024;-72
2023/07/29 08:58:46;;;;;;;2.75;1.60;;;;;;;36.33;26.62;100083.38;2121025;27;20027;-73
2023/07/29 08:59:49;;;;;;;1.92;1.60;;;;;;;36.36;26.64;100081.66;2118374;27;20079;-73
2023/07/29 09:00:52;;;;;;;8.75;2.60;;;;;;;36.39;26.49;100083.53;2103638;28;20037;-73
2023/07/29 09:02:00;;;;;;;5.70;2.33;;;;;;;36.41;26.81;100078.22;2112199;27;20482;-72
2023/07/29 09:03:06;;;;;;;;;;;;;;;36.46;25.77;100077.59;2096273;28;20041;-72
2023/07/29 09:04:08;;;;;;;31.27;15.80;;;;;;;36.52;26.33;100075.75;2096453;28;19909;-73
2023/07/29 09:05:11;;;;;;;63.15;32.28;;;;;;;36.58;26.42;100076.69;2095054;28;20033;-73
2023/07/29 09:06:14;;;;;;;68.93;36.90;;;;;;;36.66;26.91;100082.72;2103260;28;20029;-73
2023/07/29 09:07:16;;;;;;;60.85;33.67;;;;;;;36.74;27.07;100083.19;2103911;27;20867;-72
2023/07/29 09:08:18;;;;;;;14.93;7.38;;;;;;;36.78;26.44;100083.78;2111563;28;20040;-73
2023/07/29 09:09:26;;;;;;;13.25;6.82;;;;;;;36.85;26.08;100077.84;2104420;27;20880;-73
2023/07/29 09:10:28;;;;;;;4.03;2.35;;;;;;;36.90;25.53;100080.00;2111752;28;20075;-72
2023/07/29 09:11:32;;;;;;;4.80;1.95;;;;;;;36.94;25.04;100083.41;2110494;27;20846;-72
2023/07/29 09:12:35;;;;;;;15.75;8.35;;;;;;;36.98;25.10;100081.28;2112952;27;20059;-72
2023/07/29 09:13:37;;;;;;;16.35;9.32;;;;;;;37.02;25.50;100086.69;2098864;28;20813;-72
2023/07/29 09:14:38;;;;;;;10.65;6.05;;;;;;;37.05;24.90;100085.75;2103057;28;21049;-74
2023/07/29 09:15:42;;;;;;;12.05;5.90;;;;;;;37.06;25.02;100076.09;2111635;28;20871;-75
2023/07/29 09:16:45;;;;;;;16.73;9.65;;;;;;;37.16;24.55;100085.22;2095360;28;20076;-73
2023/07/29 09:17:49;;;;;;;13.25;7.80;;;;;;;37.22;25.31;100074.94;2095789;27;20040;-73
2023/07/29 09:18:55;;;;;;;16.60;9.02;;;;;;;37.31;24.74;100080.50;2104346;28;20047;-74
2023/07/29 09:19:59;;;;;;;7.90;4.30;;;;;;;37.37;24.99;100073.00;2112557;27;20044;-74
2023/07/29 09:21:00;;;;;;;8.15;4.78;;;;;;;37.45;24.42;100077.00;2112321;27;20024;-74
2023/07/29 09:22:02;;;;;;;6.10;3.72;;;;;;;37.53;24.21;100078.22;2103639;28;20114;-74
2023/07/29 09:23:09;;;;;;;3.70;2.42;;;;;;;37.59;24.21;100069.16;2103491;28;20135;-74
2023/07/29 09:24:15;;;;;;;3.65;2.33;;;;;;;37.62;23.85;100076.63;2096345;28;20072;-76
2023/07/29 09:25:22;;;;;;;7.32;4.78;;;;;;;37.63;24.20;100066.94;2088061;28;20105;-74
2023/07/29 09:26:29;;;;;;;8.48;3.72;;;;;;;37.66;24.16;100072.38;2087893;28;20030;-75
2023/07/29 09:27:32;;;;;;;5.22;2.70;;;;;;;37.68;24.29;100069.88;2095528;28;20655;-74
2023/07/29 09:28:38;;;;;;;3.40;2.17;;;;;;;37.69;23.90;100070.63;2101188;27;20144;-74
2023/07/29 09:29:40;;;;;;;3.10;1.63;;;;;;;37.70;24.18;100072.19;2102954;28;20829;-74
2023/07/29 09:30:44;;;;;;;2.53;1.55;;;;;;;37.73;23.94;100072.00;2111597;27;20135;-74
2023/07/29 09:31:48;;;;;;;6.35;1.88;;;;;;;37.74;23.74;100067.19;2103263;28;20064;-74
2023/07/29 09:33:15;;;;;;;4.22;2.00;;;;;;;37.74;24.12;100067.97;2103719;27;20911;-74
2023/07/29 09:34:19;;;;;;;2.38;1.65;;;;;;;37.76;23.76;100070.28;2113500;27;20966;-74
2023/07/29 09:35:21;;;;;;;1.73;1.35;;;;;;;37.76;23.39;100073.06;2103260;28;20146;-74
2023/07/29 09:36:25;;;;;;;2.60;1.65;;;;;;;37.75;23.46;100077.16;2112264;27;20150;-74
2023/07/29 09:37:27;;;;;;;1.92;1.42;;;;;;;37.72;23.01;100075.28;2128507;27;20916;-73
2023/07/29 09:38:35;;;;;;;2.25;1.60;;;;;;;37.70;23.32;100072.19;2119268;27;20031;-74
2023/07/29 09:39:44;;;;;;;3.30;1.92;;;;;;;37.68;23.40;100069.09;2106342;27;20087;-74
2023/07/29 09:40:49;;;;;;;2.90;1.58;;;;;;;37.69;23.34;100076.25;2101269;28;20021;-74
2023/07/29 09:41:58;;;;;;;2.22;1.45;;;;;;;37.67;23.70;100067.53;2105725;28;20847;-74
2023/07/29 09:42:59;;;;;;;1.98;1.50;;;;;;;37.64;23.65;100074.09;2101077;28;20171;-74
2023/07/29 09:44:07;;;;;;;2.38;1.50;;;;;;;37.62;23.15;100066.16;2106211;28;20064;-74
2023/07/29 09:45:11;;;;;;;1.83;1.30;;;;;;;37.56;23.24;100070.88;2097132;28;20096;-75
2023/07/29 09:46:12;;;;;;;1.88;1.45;;;;;;;37.52;23.30;100068.25;2103695;27;20070;-74
2023/07/29 09:47:21;;;;;;;1.83;1.40;;;;;;;37.48;22.96;100069.66;2116333;27;20030;-77
2023/07/29 09:48:30;;;;;;;2.40;1.23;;;;;;;37.46;23.16;100064.56;2109601;28;21233;-73
2023/07/29 09:49:37;;;;;;;1.65;1.30;;;;;;;37.41;22.90;100065.16;2110050;28;20035;-74
2023/07/29 09:50:39;;;;;;;1.80;1.20;;;;;;;37.38;22.77;100068.91;2100477;28;20032;-74
2023/07/29 09:51:43;;;;;;;2.92;1.25;;;;;;;37.32;22.77;100066.00;2097307;28;20084;-74
2023/07/29 09:52:48;;;;;;;2.88;1.60;;;;;;;37.29;23.24;100060.56;2093051;28;20029;-74
2023/07/29 09:53:55;;;;;;;2.60;1.40;;;;;;;37.26;23.50;100061.50;2100105;28;20032;-74
2023/07/29 09:54:57;;;;;;;1.90;1.45;;;;;;;37.20;23.76;100047.34;2104335;27;20076;-75
2023/07/29 09:55:58;;;;;;;2.88;1.60;;;;;;;37.15;23.60;100056.44;2110166;28;20024;-75
2023/07/29 09:57:00;;;;;;;1.77;1.30;;;;;;;37.08;23.63;100051.94;2103387;28;20160;-74
2023/07/29 09:58:07;;;;;;;1.55;1.33;;;;;;;37.03;24.07;100054.63;2104207;28;20083;-74
2023/07/29 09:59:12;;;;;;;3.78;1.70;;;;;;;36.95;23.96;100056.97;2105934;28;20110;-74
2023/07/29 10:00:14;;;;;;;3.17;1.60;;;;;;;36.91;24.35;100056.34;2114016;28;20990;-74
2023/07/29 10:01:18;;;;;;;3.28;2.10;;;;;;;36.84;23.71;100056.69;2100475;28;20889;-74
2023/07/29 10:02:25;;;;;;;3.15;1.95;;;;;;;36.81;24.12;100054.81;2098301;28;20753;-74
2023/07/29 10:03:27;;;;;;;2.95;2.30;;;;;;;36.75;23.85;100053.91;2101510;28;20021;-74
2023/07/29 10:04:29;;;;;;;2.47;1.67;;;;;;;36.66;23.49;100055.47;2106187;28;21348;-74
2023/07/29 10:05:31;;;;;;;3.90;1.38;;;;;;;36.57;23.62;100049.94;2089017;28;20025;-75
2023/07/29 10:06:34;;;;;;;2.28;1.60;;;;;;;36.48;23.60;100055.53;2089165;28;20041;-75
2023/07/29 10:07:39;;;;;;;2.90;1.65;;;;;;;36.38;23.25;100053.97;2097253;28;20037;-74
2023/07/29 10:08:46;;;;;;;3.10;1.50;;;;;;;36.27;22.87;100053.69;2099340;28;20104;-75
2023/07/29 10:09:51;;;;;;;2.03;1.48;;;;;;;36.13;22.73;100058.66;2106259;28;20110;-75
2023/07/29 10:10:59;;;;;;;1.48;1.10;;;;;;;35.95;22.71;100041.84;2106695;28;20028;-75
2023/07/29 10:12:07;;;;;;;3.28;1.58;;;;;;;35.76;22.72;100052.25;2105030;28;20076;-76
2023/07/29 10:13:09;;;;;;;1.95;1.40;;;;;;;35.63;23.42;100054.41;2087606;28;20258;-75
2023/07/29 10:14:12;;;;;;;3.08;1.50;;;;;;;35.47;22.93;100061.03;2092662;28;20046;-75
2023/07/29 10:15:21;;;;;;;1.45;1.35;;;;;;;35.26;22.97;100049.47;2101586;27;20029;-77
2023/07/29 10:16:33;;;;;;;2.25;1.30;;;;;;;35.06;23.27;100057.47;2097029;28;21137;-75
2023/07/29 10:17:38;;;;;;;1.88;1.20;;;;;;;34.81;23.10;100053.63;2095954;28;20033;-75
2023/07/29 10:18:42;;;;;;;2.03;1.40;;;;;;;34.62;23.71;100063.13;2105682;28;20017;-76
2023/07/29 10:19:45;;;;;;;1.80;1.50;;;;;;;34.45;24.11;100053.38;2108318;27;20080;-77
2023/07/29 10:20:53;;;;;;;2.17;1.45;;;;;;;34.29;25.04;100057.91;2108757;28;20060;-77
2023/07/29 10:21:58;;;;;;;5.05;1.83;;;;;;;34.17;25.17;100055.94;2107415;28;20953;-77
2023/07/29 10:23:03;;;;;;;2.38;1.40;;;;;;;34.06;25.22;100058.34;2109396;28;20049;-77
2023/07/29 10:24:08;;;;;;;2.15;1.63;;;;;;;33.93;25.11;100055.59;2105621;28;20136;-76
2023/07/29 10:25:13;;;;;;;2.83;1.50;;;;;;;33.81;24.57;100051.59;2105166;28;20032;-77
2023/07/29 10:26:19;;;;;;;1.58;1.35;;;;;;;33.68;24.81;100045.28;2108144;28;20109;-76
2023/07/29 10:27:28;;;;;;;1.23;1.10;;;;;;;33.57;24.85;100053.22;2105741;28;20048;-76
2023/07/29 10:28:40;;;;;;;1.27;1.17;;;;;;;33.45;24.66;100054.78;2102566;28;20115;-78
2023/07/29 10:29:43;;;;;;;;;;;;;;;33.35;25.04;100059.44;2098340;28;20203;-77
2023/07/29 10:30:47;;;;;;;1.67;1.25;;;;;;;33.22;25.07;100058.69;2091609;28;19922;-75
2023/07/29 10:31:54;;;;;;;1.50;1.30;;;;;;;33.08;24.98;100056.34;2107757;28;20117;-75
2023/07/29 10:33:02;;;;;;;1.17;1.08;;;;;;;32.95;24.63;100048.75;2094262;28;20140;-75
2023/07/29 10:34:10;;;;;;;1.63;1.20;;;;;;;32.78;24.67;100047.28;2104003;27;20124;-76
2023/07/29 10:35:16;;;;;;;3.67;2.17;;;;;;;32.69;24.97;100058.28;2108587;28;20032;-76
2023/07/29 10:36:30;;;;;;;4.18;1.75;;;;;;;32.53;26.22;100048.78;2098695;28;20049;-75
2023/07/29 10:37:32;;;;;;;3.65;1.90;;;;;;;32.44;26.60;100054.22;2091842;28;21297;-76
2023/07/29 10:38:36;;;;;;;3.03;1.80;;;;;;;32.33;26.51;100052.94;2096510;28;20780;-76
2023/07/29 10:39:39;;;;;;;1.95;1.40;;;;;;;32.22;26.48;100047.66;2099119;28;20936;-76
2023/07/29 10:40:47;;;;;;;8.48;4.90;;;;;;;32.12;27.33;100045.94;2095905;28;20125;-76
2023/07/29 10:42:14;;;;;;;10.93;5.30;;;;;;;31.98;27.28;100045.13;2099436;28;20140;-76
2023/07/29 10:43:27;;;;;;;12.02;8.20;;;;;;;31.90;27.76;100037.41;2105264;28;20097;-76
2023/07/29 10:44:39;;;;;;;18.35;12.73;;;;;;;31.81;27.99;100044.34;2113255;28;20028;-76
2023/07/29 10:45:42;;;;;;;8.98;7.55;;;;;;;31.74;28.23;100040.94;2102814;28;20151;-76
2023/07/29 10:46:47;;;;;;;10.68;7.28;;;;;;;31.67;28.11;100050.25;2082395;28;20107;-76
2023/07/29 10:47:53;;;;;;;13.43;10.80;;;;;;;31.58;28.46;100038.97;2089561;28;20021;-76
2023/07/29 10:49:02;;;;;;;10.80;9.38;;;;;;;31.50;28.82;100038.38;2101920;27;20040;-75
2023/07/29 10:50:20;;;;;;;6.20;5.60;;;;;;;31.43;28.73;100038.53;2110202;28;20051;-76
2023/07/29 10:51:40;;;;;;;5.90;4.43;;;;;;;31.34;28.74;100038.38;2107959;28;20040;-76
2023/07/29 10:52:42;;;;;;;8.50;6.20;;;;;;;31.29;28.82;100038.84;2110126;27;20742;-76
2023/07/29 10:53:44;;;;;;;5.43;4.70;;;;;;;31.21;29.55;100040.22;2099461;28;20028;-76
2023/07/29 10:54:48;;;;;;;4.35;3.22;;;;;;;31.15;29.15;100040.00;2091826;28;20126;-76
2023/07/29 10:55:51;;;;;;;3.05;2.75;;;;;;;31.09;29.26;100042.50;2103719;28;20033;-76
2023/07/29 10:56:57;;;;;;;4.20;2.10;;;;;;;31.03;29.28;100038.66;2104789;28;20112;-76
2023/07/29 10:58:07;;;;;;;3.17;2.10;;;;;;;30.93;28.94;100034.13;2102986;27;20833;-77
2023/07/29 10:59:32;;;;;;;4.43;2.40;;;;;;;30.89;29.27;100038.97;2100103;28;20040;-76
2023/07/29 11:00:34;;;;;;;2.72;2.20;;;;;;;30.83;29.42;100046.25;2103393;27;20047;-75
2023/07/29 11:01:45;;;;;;;2.10;1.65;;;;;;;30.77;29.34;100034.03;2104686;28;20031;-75
2023/07/29 11:03:00;;;;;;;2.75;1.80;;;;;;;30.73;29.13;100038.91;2101855;28;20910;-75
2023/07/29 11:04:24;;;;;;;3.95;2.13;;;;;;;30.64;29.43;100031.94;2108003;28;20934;-75
2023/07/29 11:05:25;;;;;;;2.28;1.70;;;;;;;30.58;30.22;100030.91;2102822;28;20042;-75
2023/07/29 11:06:27;;;;;;;2.88;1.55;;;;;;;30.54;29.88;100024.63;2096424;28;20033;-75
2023/07/29 11:07:32;;;;;;;2.45;1.60;;;;;;;30.48;29.89;100027.09;2096543;28;20033;-75
2023/07/29 11:08:37;;;;;;;1.85;1.50;;;;;;;30.43;29.78;100019.28;2104136;28;20060;-75
2023/07/29 11:09:48;;;;;;;1.80;1.35;;;;;;;30.39;30.02;100026.13;2107490;27;20033;-75
2023/07/29 11:11:06;;;;;;;3.13;1.70;;;;;;;30.32;29.92;100029.81;2117795;27;20032;-75
2023/07/29 11:12:40;;;;;;;1.52;1.40;;;;;;;30.28;30.23;100031.09;2116027;27;20040;-76
2023/07/29 11:13:41;;;;;;;2.15;1.48;;;;;;;30.23;30.35;100033.19;2097790;28;20087;-76
2023/07/29 11:14:47;;;;;;;2.20;1.27;;;;;;;30.18;30.22;100030.84;2097908;27;20023;-76
2023/07/29 11:15:56;;;;;;;2.35;1.50;;;;;;;30.13;29.96;100027.78;2108349;28;20028;-76
2023/07/29 11:17:03;;;;;;;3.08;1.58;;;;;;;30.06;29.69;100022.38;2090920;28;20868;-76
2023/07/29 11:18:08;;;;;;;1.90;1.42;;;;;;;30.01;30.02;100024.44;2094638;28;20037;-75
2023/07/29 11:19:19;;;;;;;3.63;1.65;;;;;;;29.92;30.02;100024.22;2108395;27;20071;-76
2023/07/29 11:20:27;;;;;;;2.10;1.60;;;;;;;29.89;30.73;100018.75;2102273;28;20035;-75
2023/07/29 11:21:32;;;;;;;2.08;1.50;;;;;;;29.85;30.84;100023.53;2087988;28;20067;-75
2023/07/29 11:22:35;;;;;;;2.40;1.70;;;;;;;29.77;30.87;100015.38;2085662;28;21288;-75
2023/07/29 11:23:36;;;;;;;2.20;1.63;;;;;;;29.72;31.25;100015.84;2100699;28;20159;-75
2023/07/29 11:24:38;;;;;;;2.03;1.30;;;;;;;29.68;31.45;100009.59;2093279;28;20068;-75
2023/07/29 11:25:41;;;;;;;1.30;1.20;;;;;;;29.61;31.47;100012.50;2091451;28;20926;-76
2023/07/29 11:26:48;;;;;;;1.80;1.50;;;;;;;29.56;30.69;100010.94;2105389;28;20023;-76
2023/07/29 11:27:54;;;;;;;1.95;1.30;;;;;;;29.51;30.61;100018.97;2099990;28;20029;-73
2023/07/29 11:28:56;;;;;;;1.75;1.30;;;;;;;29.47;30.57;100021.00;2099164;28;20029;-73
2023/07/29 11:30:06;;;;;;;1.48;1.30;;;;;;;29.40;31.12;100010.03;2110377;27;20137;-74
2023/07/29 11:31:10;;;;;;;3.33;1.42;;;;;;;29.36;31.23;100020.41;2111153;28;20255;-74
2023/07/29 11:32:13;;;;;;;1.77;1.30;;;;;;;29.31;31.21;100014.13;2107982;28;20091;-76
2023/07/29 11:33:20;;;;;;;1.92;1.20;;;;;;;29.25;30.90;100013.03;2118082;27;20135;-76
2023/07/29 11:34:32;;;;;;;1.52;1.15;;;;;;;29.21;30.98;100008.75;2116721;27;20036;-76
2023/07/29 11:35:36;;;;;;;3.15;1.50;;;;;;;29.16;31.32;100006.44;2111226;28;20039;-74
2023/07/29 11:36:37;;;;;;;1.73;1.40;;;;;;;29.11;31.52;100010.50;2102763;28;20098;-75
2023/07/29 11:37:39;;;;;;;2.63;1.65;;;;;;;29.05;31.17;99995.56;2105361;28;20836;-75
2023/07/29 11:38:41;;;;;;;1.63;1.30;;;;;;;29.01;30.82;100000.38;2098528;28;20044;-75
2023/07/29 11:39:42;;;;;;;1.50;1.25;;;;;;;28.99;30.46;100008.25;2096093;28;20139;-75
2023/07/29 11:40:56;;;;;;;3.30;1.25;;;;;;;28.95;30.14;100013.06;2105967;28;20024;-75
2023/07/29 11:41:58;;;;;;;1.80;1.30;;;;;;;28.90;30.66;99999.69;2112242;27;20112;-75
2023/07/29 11:43:00;;;;;;;1.85;1.35;;;;;;;28.87;30.93;100007.63;2117007;27;20854;-75
2023/07/29 11:44:02;;;;;;;2.17;1.48;;;;;;;28.84;31.03;100002.91;2117697;27;20036;-77
2023/07/29 11:45:08;;;;;;;3.08;1.33;;;;;;;28.80;31.07;100001.41;2102812;28;20035;-77
2023/07/29 11:46:11;;;;;;;2.00;1.48;;;;;;;28.79;31.40;100000.63;2082934;28;20757;-78
2023/07/29 11:47:12;;;;;;;1.85;1.40;;;;;;;28.74;31.56;99992.78;2096077;28;20022;-76
2023/07/29 11:48:14;;;;;;;1.70;1.35;;;;;;;28.74;31.18;99998.31;2104475;28;20036;-76
2023/07/29 11:49:15;;;;;;;3.00;1.50;;;;;;;28.67;30.92;99998.44;2110938;28;20154;-74
2023/07/29 11:50:18;;;;;;;1.48;1.38;;;;;;;28.62;30.97;100002.44;2099772;28;20032;-75
2023/07/29 11:51:20;;;;;;;2.90;1.77;;;;;;;28.61;31.05;100008.38;2090055;28;20021;-75
2023/07/29 11:52:22;;;;;;;1.48;1.30;;;;;;;28.60;31.22;100015.13;2109912;27;20066;-76
2023/07/29 11:53:29;;;;;;;2.50;1.45;;;;;;;28.57;31.35;100004.91;2107471;28;20871;-74
2023/07/29 11:54:37;;;;;;;1.60;1.27;;;;;;;28.53;31.24;100004.13;2105560;28;20020;-74
2023/07/29 11:55:41;;;;;;;2.03;1.80;;;;;;;28.49;31.08;100000.63;2098150;28;20045;-76
2023/07/29 11:56:44;;;;;;;1.70;1.50;;;;;;;28.46;31.08;100010.53;2092188;28;20095;-77
2023/07/29 11:57:53;;;;;;;3.15;1.60;;;;;;;28.39;30.96;99994.78;2098620;28;20193;-77
2023/07/29 11:58:57;;;;;;;1.70;1.27;;;;;;;28.37;31.00;99993.63;2107525;28;20048;-75
2023/07/29 12:00:01;;;;;;;2.78;1.30;;;;;;;28.33;30.89;99990.91;2105238;28;20060;-75
2023/07/29 12:01:11;;;;;;;2.15;1.65;;;;;;;28.31;31.56;99998.03;2101531;28;20857;-74
2023/07/29 12:02:15;;;;;;;2.75;1.40;;;;;;;28.27;31.61;99992.56;2088496;28;20773;-75
2023/07/29 12:03:20;;;;;;;3.60;1.30;;;;;;;28.25;31.80;99986.69;2093377;28;20209;-74
2023/07/29 12:04:22;;;;;;;2.00;1.50;;;;;;;28.22;31.92;99989.50;2095618;28;20939;-75
2023/07/29 12:05:28;;;;;;;2.20;1.30;;;;;;;28.20;32.03;99989.88;2090439;28;20037;-74
2023/07/29 12:06:31;;;;;;;1.48;1.30;;;;;;;28.19;32.11;99988.34;2096799;28;20025;-74
2023/07/29 12:07:41;;;;;;;3.67;1.30;;;;;;;28.17;32.20;99990.72;2099403;28;20072;-75
2023/07/29 12:08:44;;;;;;;1.50;1.30;;;;;;;28.14;32.08;99989.56;2105925;28;20024;-76
2023/07/29 12:09:47;;;;;;;2.22;1.40;;;;;;;28.10;31.87;99977.75;2100266;28;20923;-75
2023/07/29 12:10:51;;;;;;;1.70;1.20;;;;;;;28.08;31.91;99979.38;2088851;28;20044;-74
2023/07/29 12:12:00;;;;;;;2.05;1.63;;;;;;;28.04;32.37;99978.63;2091661;28;20196;-74
2023/07/29 12:13:03;;;;;;;1.33;1.23;;;;;;;28.02;32.48;99979.03;2103522;28;20047;-74
2023/07/29 12:14:08;;;;;;;1.67;1.40;;;;;;;28.02;32.24;99975.50;2104817;28;20121;-74
2023/07/29 12:15:12;;;;;;;1.70;1.30;;;;;;;28.00;32.10;99975.13;2108606;28;20906;-74
2023/07/29 12:16:20;;;;;;;1.85;1.27;;;;;;;27.97;32.04;99973.19;2093784;28;20024;-74
2023/07/29 12:17:22;;;;;;;4.15;1.73;;;;;;;27.91;32.53;99973.63;2097215;28;20040;-76
2023/07/29 12:18:33;;;;;;;6.60;2.65;;;;;;;27.92;32.79;99972.41;2104992;28;20060;-74
2023/07/29 12:19:40;;;;;;;3.97;2.00;;;;;;;27.92;33.04;99972.41;2105560;28;20040;-74
2023/07/29 12:20:44;;;;;;;3.35;1.83;;;;;;;27.91;32.98;99970.09;2097762;28;20853;-73
2023/07/29 12:21:48;;;;;;;4.93;2.60;;;;;;;27.89;33.21;99964.19;2097360;28;20037;-77
2023/07/29 12:22:56;;;;;;;12.80;3.47;;;;;;;27.88;33.48;99959.84;2106244;28;20017;-74
2023/07/29 12:23:58;;;;;;;6.68;2.88;;;;;;;27.88;33.66;99966.16;2097660;28;20052;-74
2023/07/29 12:25:05;;;;;;;5.07;2.08;;;;;;;27.86;33.36;99963.00;2106092;27;20037;-74
2023/07/29 12:26:12;;;;;;;2.72;1.50;;;;;;;27.85;32.92;99955.16;2113034;28;20036;-74
2023/07/29 12:27:16;;;;;;;5.28;1.77;;;;;;;27.80;32.95;99948.09;2113068;28;20097;-74
2023/07/29 12:28:22;;;;;;;4.32;2.10;;;;;;;27.76;33.07;99947.31;2113059;28;20859;-75
2023/07/29 12:29:28;;;;;;;4.13;2.15;;;;;;;27.78;33.53;99949.72;2114070;27;20032;-75
2023/07/29 12:30:32;;;;;;;3.13;1.85;;;;;;;27.72;33.68;99943.81;2114146;28;20032;-73
2023/07/29 12:31:37;;;;;;;3.15;1.90;;;;;;;27.72;33.66;99943.81;2114089;27;20027;-74
2023/07/29 12:33:01;;;;;;;3.10;1.85;;;;;;;27.72;34.17;99957.63;2105597;28;20040;-75
2023/07/29 12:34:03;;;;;;;3.50;1.58;;;;;;;27.69;33.77;99953.69;2106058;28;20143;-74
2023/07/29 12:35:10;;;;;;;1.35;1.20;;;;;;;27.66;33.66;99948.22;2113902;27;20815;-74
2023/07/29 12:36:12;;;;;;;5.85;1.42;;;;;;;27.65;33.65;99941.13;2113478;28;20031;-74
2023/07/29 12:37:18;;;;;;;1.55;1.35;;;;;;;27.65;34.03;99952.19;2105376;28;20871;-74
2023/07/29 12:38:26;;;;;;;1.52;1.40;;;;;;;27.62;33.97;99953.00;2115013;27;20027;-75
2023/07/29 12:39:34;;;;;;;2.72;1.30;;;;;;;27.61;33.51;99956.94;2113629;28;20139;-74
2023/07/29 12:40:42;;;;;;;3.28;1.45;;;;;;;27.60;33.39;99949.84;2114724;27;20028;-74
2023/07/29 12:41:46;;;;;;;2.33;1.40;;;;;;;27.54;33.41;99946.75;2113592;28;20032;-74
2023/07/29 12:42:53;;;;;;;2.28;1.40;;;;;;;27.56;33.35;99946.34;2098163;28;20033;-74
2023/07/29 12:43:57;;;;;;;1.48;1.25;;;;;;;27.54;33.08;99946.75;2098402;28;20807;-74
2023/07/29 12:45:02;;;;;;;1.52;1.27;;;;;;;27.53;33.06;99956.22;2083741;28;20034;-77
2023/07/29 12:46:08;;;;;;;2.97;1.30;;;;;;;27.52;33.25;99946.34;2070210;28;21584;-74
2023/07/29 12:47:15;;;;;;;1.67;1.30;;;;;;;27.53;33.32;99949.91;2099257;28;20139;-75
2023/07/29 12:48:19;;;;;;;2.40;1.48;;;;;;;27.49;33.42;99936.13;2100342;28;20036;-74
2023/07/29 12:49:23;;;;;;;1.88;1.40;;;;;;;27.47;33.76;99944.84;2106240;28;20156;-75
2023/07/29 12:50:27;;;;;;;3.03;1.30;;;;;;;27.50;33.50;99952.28;2097420;28;20047;-75
2023/07/29 12:51:35;;;;;;;2.25;1.27;;;;;;;27.47;33.76;99942.06;2090241;28;20069;-75
2023/07/29 12:52:39;;;;;;;2.40;1.40;;;;;;;27.43;34.06;99937.78;2107166;27;20191;-75
2023/07/29 12:53:43;;;;;;;2.72;1.58;;;;;;;27.53;34.22;99944.41;2096907;28;20764;-75
2023/07/29 12:54:49;;;;;;;1.88;1.40;;;;;;;27.52;34.17;99946.34;2082281;28;20112;-75
2023/07/29 12:55:51;;;;;;;2.03;1.33;;;;;;;27.53;34.39;99944.41;2081085;28;20034;-76
2023/07/29 12:56:52;;;;;;;2.55;1.70;;;;;;;27.50;34.02;99944.00;2088720;28;20112;-76
2023/07/29 12:57:56;;;;;;;3.75;1.48;;;;;;;27.51;34.10;99942.03;2105105;28;20843;-74
2023/07/29 12:59:02;;;;;;;3.97;1.55;;;;;;;27.49;33.82;99941.66;2088184;28;20144;-74
2023/07/29 13:00:07;;;;;;;2.10;1.50;;;;;;;27.47;33.78;99946.81;2090075;28;20049;-74
2023/07/29 13:01:09;;;;;;;1.88;1.40;;;;;;;27.44;33.77;99940.13;2096531;28;21149;-75
2023/07/29 13:02:14;;;;;;;2.30;1.73;;;;;;;27.40;33.92;99936.63;2097451;28;20021;-77
2023/07/29 13:03:16;;;;;;;2.65;1.60;;;;;;;27.42;34.13;99942.50;2093415;28;20088;-77
2023/07/29 13:04:22;;;;;;;2.28;1.70;;;;;;;27.38;34.01;99939.00;2088425;28;20136;-76
2023/07/29 13:05:30;;;;;;;2.28;1.73;;;;;;;27.37;33.87;99942.97;2099292;28;20915;-75
2023/07/29 13:06:40;;;;;;;2.33;1.63;;;;;;;27.34;34.08;99937.47;2112273;27;20082;-74
2023/07/29 13:07:45;;;;;;;2.63;1.70;;;;;;;27.30;34.06;99933.94;2107753;27;20132;-75
2023/07/29 13:08:47;;;;;;;2.53;1.73;;;;;;;27.29;34.02;99944.19;2099511;28;20040;-75
2023/07/29 13:09:53;;;;;;;1.50;1.40;;;;;;;27.24;34.29;99939.13;2083536;28;20069;-75
2023/07/29 13:10:58;;;;;;;1.92;1.55;;;;;;;27.23;34.34;99943.06;2096635;28;20052;-75
2023/07/29 13:12:02;;;;;;;2.35;1.52;;;;;;;27.22;34.22;99942.28;2110062;28;20147;-75
2023/07/29 13:13:06;;;;;;;2.78;1.70;;;;;;;27.18;34.43;99946.28;2116897;27;21066;-76
2023/07/29 13:14:08;;;;;;;3.13;1.70;;;;;;;27.18;34.67;99941.53;2108191;28;20075;-76
2023/07/29 13:15:10;;;;;;;4.60;1.50;;;;;;;27.17;34.80;99945.47;2099051;28;20102;-75
2023/07/29 13:16:14;;;;;;;2.65;1.50;;;;;;;27.16;34.97;99938.41;2079594;28;21242;-76
2023/07/29 13:17:15;;;;;;;5.15;1.88;;;;;;;27.19;35.38;99947.84;2089855;28;20037;-76
2023/07/29 13:18:20;;;;;;;2.05;1.70;;;;;;;27.19;35.18;99950.59;2088782;28;20029;-76
2023/07/29 13:19:28;;;;;;;2.58;1.90;;;;;;;27.18;35.32;99940.75;2111759;28;20075;-75
2023/07/29 13:20:30;;;;;;;1.83;1.38;;;;;;;27.18;35.27;99943.53;2112796;28;20028;-75
2023/07/29 13:21:32;;;;;;;1.80;1.38;;;;;;;27.18;35.04;99949.81;2106824;28;20072;-75
2023/07/29 13:22:36;;;;;;;2.35;1.40;;;;;;;27.19;35.28;99942.31;2100805;28;20067;-74
2023/07/29 13:23:48;;;;;;;2.88;1.80;;;;;;;27.20;35.55;99946.63;2105173;28;20029;-74
2023/07/29 13:24:50;;;;;;;1.63;1.50;;;;;;;27.20;35.42;99943.88;2098324;28;20087;-75
2023/07/29 13:25:55;;;;;;;1.75;1.60;;;;;;;27.19;36.00;99937.56;2105247;28;20036;-75
2023/07/29 13:26:57;;;;;;;2.63;1.60;;;;;;;27.20;35.93;99936.38;2115696;27;20041;-75
2023/07/29 13:28:01;;;;;;;3.15;1.60;;;;;;;27.20;35.67;99939.13;2106114;28;20035;-74
2023/07/29 13:29:05;;;;;;;1.90;1.50;;;;;;;27.19;36.04;99940.34;2099247;28;20018;-75
2023/07/29 13:30:11;;;;;;;2.42;1.65;;;;;;;27.20;35.83;99935.59;2106739;28;20053;-75
2023/07/29 13:31:12;;;;;;;3.33;1.80;;;;;;;27.18;35.92;99936.03;2099120;28;20179;-75
2023/07/29 13:32:15;;;;;;;1.65;1.48;;;;;;;27.18;36.13;99932.47;2103424;28;20029;-75
2023/07/29 13:33:20;;;;;;;6.32;1.90;;;;;;;27.17;36.12;99933.66;2097185;28;20060;-75
2023/07/29 13:34:23;;;;;;;5.70;1.88;;;;;;;27.16;36.12;99934.84;2087515;28;21008;-74
2023/07/29 13:35:26;;;;;;;4.93;2.13;;;;;;;27.12;36.14;99932.09;2097634;28;20139;-74